Time;durP1;ratioP1;P1;durP2;ratioP2;P2;SDS_P1;SDS_P2;PMS_P1;PMS_P2;Temp;Humidity;BMP_temperature;BMP_pressure;BME280_temperature;BME280_humidity;BME280_pressure;Samples;Min_cycle;Max_cycle;Signal;HPM_P1;HPM_P2
2021/08/27 00:02:12;;;;;;;4.53;2.85;;;;;;;18.60;63.53;99403.81;4478906;31;34004;-83
2021/08/27 00:04:40;;;;;;;5.37;3.40;;;;;;;18.80;63.20;99388.81;4450740;31;32550;-83
2021/08/27 00:07:08;;;;;;;5.35;2.83;;;;;;;19.06;62.38;99375.91;4475489;31;32867;-84
2021/08/27 00:09:35;;;;;;;5.00;3.08;;;;;;;18.84;63.37;99362.63;4497392;31;33938;-84
2021/08/27 00:12:04;;;;;;;4.68;3.15;;;;;;;18.58;64.59;99354.13;4469883;32;33792;-84
2021/08/27 00:14:31;;;;;;;4.40;3.25;;;;;;;18.52;65.07;99339.44;4487247;31;33500;-83
2021/08/27 00:16:59;;;;;;;8.55;3.47;;;;;;;18.50;65.46;99338.72;4477141;31;33345;-84
2021/08/27 00:19:27;;;;;;;4.62;2.85;;;;;;;18.50;65.29;99345.87;4472423;32;33351;-84
2021/08/27 00:21:54;;;;;;;7.00;3.72;;;;;;;18.55;65.04;99357.88;4461829;31;33920;-84
2021/08/27 00:24:22;;;;;;;6.75;3.00;;;;;;;18.44;65.03;99365.97;4485069;31;33958;-84
2021/08/27 00:26:50;;;;;;;5.82;3.28;;;;;;;18.49;65.06;99369.09;4485646;31;33866;-84
2021/08/27 00:29:18;;;;;;;7.53;3.10;;;;;;;18.56;65.07;99364.97;4470795;32;33300;-84
2021/08/27 00:31:45;;;;;;;5.05;3.17;;;;;;;18.61;64.40;99368.09;4473073;31;33007;-83
2021/08/27 00:34:13;;;;;;;6.90;3.62;;;;;;;18.63;64.35;99379.50;4467465;31;33701;-84
2021/08/27 00:36:40;;;;;;;5.57;3.25;;;;;;;18.55;64.55;99379.28;4466210;31;33982;-84
2021/08/27 00:39:08;;;;;;;4.30;2.95;;;;;;;18.52;64.78;99374.22;4476015;31;33782;-84
2021/08/27 00:41:36;;;;;;;5.50;3.42;;;;;;;18.49;64.75;99363.75;4464218;32;35088;-83
2021/08/27 00:44:04;;;;;;;6.97;3.20;;;;;;;18.64;63.98;99351.78;4481902;31;33389;-84
2021/08/27 00:46:31;;;;;;;5.82;2.72;;;;;;;18.87;62.84;99346.34;4467141;31;32797;-83
2021/08/27 00:48:59;;;;;;;5.57;2.95;;;;;;;18.51;63.33;99364.47;4473007;31;34052;-83
2021/08/27 00:51:27;;;;;;;4.43;2.97;;;;;;;18.47;63.84;99368.41;4472356;32;34129;-83
2021/08/27 00:53:54;;;;;;;4.80;2.60;;;;;;;18.30;64.30;99352.91;4473562;31;34192;-82
2021/08/27 00:56:22;;;;;;;4.68;3.22;;;;;;;18.04;65.32;99363.03;4477366;31;33545;-83
2021/08/27 00:58:50;;;;;;;5.03;3.10;;;;;;;18.03;64.98;99348.84;4496032;31;33977;-83
2021/08/27 01:01:18;;;;;;;6.25;3.60;;;;;;;18.05;64.65;99356.75;4481424;31;34002;-83
2021/08/27 01:03:46;;;;;;;6.97;3.03;;;;;;;17.67;65.68;99353.50;4474272;31;33352;-83
2021/08/27 01:06:31;;;;;;;7.62;3.17;;;;;;;17.49;66.73;99354.97;4486792;31;32256;-83
2021/08/27 01:09:03;;;;;;;5.55;3.28;;;;;;;17.77;65.96;99361.66;4490404;31;34011;-84
2021/08/27 01:11:33;;;;;;;5.75;3.00;;;;;;;17.98;65.07;99372.41;4456864;31;32822;-84
2021/08/27 01:14:03;;;;;;;4.75;2.95;;;;;;;17.81;66.07;99371.13;4485144;31;33357;-84
2021/08/27 01:16:40;;;;;;;5.87;3.25;;;;;;;17.46;67.32;99367.69;4472793;31;34565;-84
2021/08/27 01:19:31;;;;;;;5.65;2.75;;;;;;;17.60;66.42;99375.44;4475425;31;34153;-84
2021/08/27 01:22:12;;;;;;;5.05;2.45;;;;;;;17.70;65.62;99367.56;4474292;31;33212;-84
2021/08/27 01:24:41;;;;;;;5.12;3.05;;;;;;;17.78;65.52;99363.34;4489059;31;34087;-85
2021/08/27 01:27:12;;;;;;;3.42;2.30;;;;;;;17.80;65.38;99358.75;4470144;31;34013;-84
2021/08/27 01:29:39;;;;;;;4.70;3.00;;;;;;;17.67;65.99;99345.50;4474893;31;35066;-84
2021/08/27 01:32:10;;;;;;;3.83;2.62;;;;;;;17.81;65.78;99347.06;4479206;31;32843;-84
2021/08/27 01:34:40;;;;;;;7.65;2.62;;;;;;;17.88;65.11;99347.41;4486204;31;33142;-84
2021/08/27 01:37:14;;;;;;;4.68;1.83;;;;;;;18.30;63.98;99347.56;4485325;31;34668;-84
2021/08/27 01:39:46;;;;;;;6.12;2.47;;;;;;;18.24;64.10;99342.72;4495724;31;34128;-84
2021/08/27 01:42:15;;;;;;;5.05;2.45;;;;;;;18.04;64.59;99344.34;4481438;31;33514;-84
2021/08/27 01:44:44;;;;;;;3.83;2.45;;;;;;;18.08;64.75;99341.28;4482216;31;32442;-84
2021/08/27 01:47:16;;;;;;;4.53;2.78;;;;;;;18.02;65.03;99347.16;4478287;32;33208;-84
2021/08/27 01:49:45;;;;;;;6.10;3.15;;;;;;;18.31;63.83;99344.75;4463958;31;32985;-83
2021/08/27 01:52:13;;;;;;;7.03;2.90;;;;;;;18.17;64.12;99343.22;4468037;31;33891;-83
2021/08/27 01:54:41;;;;;;;4.18;2.50;;;;;;;17.87;65.40;99351.91;4486922;31;33368;-83
2021/08/27 01:57:09;;;;;;;4.70;2.65;;;;;;;17.76;66.39;99343.09;4472340;31;32730;-83
2021/08/27 01:59:42;;;;;;;5.62;3.33;;;;;;;17.78;66.36;99349.16;4483272;31;33671;-83
2021/08/27 02:02:14;;;;;;;4.57;2.45;;;;;;;17.91;65.95;99352.53;4481074;31;33542;-83
2021/08/27 02:04:52;;;;;;;5.72;2.15;;;;;;;17.80;66.65;99355.19;4477212;32;34034;-85
2021/08/27 02:07:20;;;;;;;4.20;2.20;;;;;;;18.20;64.81;99351.97;4461205;31;34202;-85
2021/08/27 02:09:51;;;;;;;5.00;2.90;;;;;;;17.91;66.03;99357.88;4474613;31;33646;-85
2021/08/27 02:12:19;;;;;;;5.87;2.70;;;;;;;17.66;66.75;99359.81;4485752;31;34514;-84
2021/08/27 02:14:52;;;;;;;4.25;2.17;;;;;;;17.81;66.28;99360.44;4469517;31;33526;-82
2021/08/27 02:17:19;;;;;;;3.40;2.33;;;;;;;17.78;66.52;99367.84;4483121;31;33648;-82
2021/08/27 02:19:47;;;;;;;4.62;2.50;;;;;;;17.75;66.62;99368.06;4474615;31;34092;-82
2021/08/27 02:22:17;;;;;;;5.15;2.65;;;;;;;17.99;65.56;99360.75;4475972;31;33964;-82
2021/08/27 02:24:53;;;;;;;3.95;2.25;;;;;;;17.92;65.73;99354.22;4475368;31;33242;-82
2021/08/27 02:27:22;;;;;;;4.47;2.70;;;;;;;17.89;66.05;99349.12;4478798;31;33823;-82
2021/08/27 02:29:52;;;;;;;4.25;2.70;;;;;;;17.78;66.73;99346.47;4459292;31;33656;-82
2021/08/27 02:32:21;;;;;;;5.95;2.53;;;;;;;17.81;67.00;99344.41;4487107;31;34422;-82
2021/08/27 02:34:49;;;;;;;7.12;3.10;;;;;;;17.74;67.25;99345.87;4481948;31;32361;-82
2021/08/27 02:37:19;;;;;;;7.68;3.65;;;;;;;18.07;65.48;99330.75;4477724;31;33823;-82
2021/08/27 02:39:46;;;;;;;4.37;2.60;;;;;;;18.14;64.89;99316.75;4473406;32;34055;-82
2021/08/27 02:42:14;;;;;;;3.97;2.85;;;;;;;18.15;64.95;99315.78;4477804;31;33862;-82
2021/08/27 02:44:42;;;;;;;5.85;2.85;;;;;;;18.09;65.17;99318.97;4472376;31;33819;-82
2021/08/27 02:47:10;;;;;;;6.05;3.20;;;;;;;17.81;66.58;99325.72;4481287;31;33532;-82
2021/08/27 02:49:37;;;;;;;3.87;3.15;;;;;;;17.96;65.71;99326.28;4476671;31;33057;-82
2021/08/27 02:52:32;;;;;;;7.30;2.97;;;;;;;17.86;66.13;99328.84;4468020;31;33619;-82
2021/08/27 02:55:21;;;;;;;7.55;2.85;;;;;;;17.88;66.32;99331.41;4471797;31;32994;-83
2021/08/27 02:58:08;;;;;;;5.10;3.17;;;;;;;18.06;65.52;99327.22;4487578;31;33666;-84
2021/08/27 03:00:50;;;;;;;7.30;3.50;;;;;;;17.71;66.93;99323.84;4471232;31;35552;-83
2021/08/27 03:03:22;;;;;;;6.68;3.50;;;;;;;17.61;67.52;99332.63;4480848;31;33894;-84
2021/08/27 03:05:53;;;;;;;8.45;3.72;;;;;;;17.56;67.50;99332.13;4490263;31;33601;-84
2021/08/27 03:08:22;;;;;;;6.05;3.47;;;;;;;17.64;67.25;99340.38;4472781;31;33466;-84
2021/08/27 03:10:53;;;;;;;8.40;3.20;;;;;;;17.68;66.74;99343.66;4475065;31;33425;-83
2021/08/27 03:13:47;;;;;;;5.75;3.35;;;;;;;18.04;65.55;99339.00;4494639;31;34846;-84
2021/08/27 03:16:16;;;;;;;7.55;3.87;;;;;;;17.71;66.56;99345.22;4486643;31;33706;-84
2021/08/27 03:19:06;;;;;;;5.25;3.30;;;;;;;17.64;66.89;99345.72;4482649;31;33950;-84
2021/08/27 03:21:51;;;;;;;5.47;2.83;;;;;;;17.51;67.31;99355.66;4480274;31;34953;-84
2021/08/27 03:24:22;;;;;;;7.32;3.35;;;;;;;17.69;66.24;99356.03;4485878;31;33830;-84
2021/08/27 03:26:58;;;;;;;4.63;3.13;;;;;;;17.69;66.53;99366.72;4473982;31;32705;-83
2021/08/27 03:29:45;;;;;;;6.82;2.90;;;;;;;17.72;66.11;99347.78;4474768;31;33816;-83
2021/08/27 03:32:14;;;;;;;7.12;3.25;;;;;;;17.60;66.31;99349.59;4473893;32;33247;-83
2021/08/27 03:34:43;;;;;;;6.37;3.83;;;;;;;17.59;66.84;99363.09;4466980;31;34311;-84
2021/08/27 03:37:11;;;;;;;5.97;3.20;;;;;;;17.67;66.70;99363.34;4464927;31;33863;-84
2021/08/27 03:39:40;;;;;;;5.28;3.17;;;;;;;17.84;66.35;99365.50;4497671;31;33864;-83
2021/08/27 03:42:08;;;;;;;7.15;3.37;;;;;;;18.01;65.31;99363.31;4478438;31;34143;-83
2021/08/27 03:44:36;;;;;;;5.15;2.85;;;;;;;17.78;66.13;99362.50;4464899;32;33570;-83
2021/08/27 03:47:04;;;;;;;7.30;3.35;;;;;;;17.74;66.22;99377.91;4477920;31;33517;-83
2021/08/27 03:49:32;;;;;;;4.95;2.65;;;;;;;17.72;66.31;99382.50;4491559;31;34005;-83
2021/08/27 03:52:01;;;;;;;5.47;3.45;;;;;;;17.95;65.04;99386.03;4466593;31;33977;-83
2021/08/27 03:54:29;;;;;;;5.25;2.67;;;;;;;17.76;65.18;99383.16;4485390;31;33999;-84
2021/08/27 03:56:59;;;;;;;8.57;3.42;;;;;;;17.75;65.34;99381.41;4467079;31;33774;-84
2021/08/27 03:59:28;;;;;;;3.65;2.55;;;;;;;17.81;65.44;99386.28;4472356;31;32852;-84
2021/08/27 04:01:57;;;;;;;7.57;2.90;;;;;;;18.17;63.69;99385.97;4475312;32;33764;-84
2021/08/27 04:04:26;;;;;;;5.90;3.03;;;;;;;17.81;65.08;99389.81;4459146;31;33427;-84
2021/08/27 04:06:57;;;;;;;6.40;3.22;;;;;;;17.71;65.94;99393.28;4462725;32;32959;-83
2021/08/27 04:09:32;;;;;;;4.45;3.08;;;;;;;17.83;64.99;99393.19;4475323;31;33851;-84
2021/08/27 04:12:02;;;;;;;6.28;3.28;;;;;;;17.75;65.17;99405.44;4487522;31;34957;-84
2021/08/27 04:14:34;;;;;;;6.53;3.17;;;;;;;17.77;65.06;99407.03;4471642;31;32754;-84
2021/08/27 04:17:04;;;;;;;5.87;3.45;;;;;;;17.77;64.95;99408.88;4475756;31;33050;-85
2021/08/27 04:19:34;;;;;;;6.32;3.25;;;;;;;17.83;64.71;99411.03;4472087;32;34736;-84
2021/08/27 04:22:02;;;;;;;6.47;3.20;;;;;;;17.91;64.36;99408.63;4480448;31;34599;-84
2021/08/27 04:24:30;;;;;;;6.68;3.30;;;;;;;17.94;64.10;99399.50;4488512;31;33571;-84
2021/08/27 04:26:58;;;;;;;4.80;3.15;;;;;;;17.85;64.42;99409.97;4473800;31;33135;-84
2021/08/27 04:29:26;;;;;;;4.57;3.05;;;;;;;18.00;63.97;99399.87;4471753;31;35527;-84
2021/08/27 04:31:56;;;;;;;4.78;2.85;;;;;;;17.94;63.99;99392.31;4465046;31;34091;-84
2021/08/27 04:34:24;;;;;;;3.92;2.92;;;;;;;17.88;63.70;99395.50;4484118;31;33410;-84
2021/08/27 04:36:52;;;;;;;7.30;3.00;;;;;;;17.80;64.62;99392.59;4467885;32;33366;-84
2021/08/27 04:39:19;;;;;;;5.78;2.72;;;;;;;18.00;63.22;99374.97;4470050;31;32766;-84
2021/08/27 04:41:47;;;;;;;6.12;2.60;;;;;;;17.97;63.28;99368.03;4470727;32;33077;-84
2021/08/27 04:44:15;;;;;;;7.30;2.75;;;;;;;17.15;66.78;99370.94;4454780;32;33804;-84
2021/08/27 04:46:42;;;;;;;6.00;3.10;;;;;;;17.26;66.63;99377.25;4461961;31;33740;-85
2021/08/27 04:49:10;;;;;;;6.43;2.95;;;;;;;17.21;66.54;99377.63;4466953;31;33209;-85
2021/08/27 04:51:38;;;;;;;7.45;3.08;;;;;;;17.34;65.98;99370.38;4462635;31;33436;-83
2021/08/27 04:54:05;;;;;;;5.90;2.75;;;;;;;17.65;64.48;99367.94;4479040;31;34212;-84
2021/08/27 04:56:33;;;;;;;5.22;2.72;;;;;;;17.72;63.79;99376.31;4476378;31;32505;-84
2021/08/27 04:59:01;;;;;;;4.70;3.15;;;;;;;17.82;63.67;99371.97;4470634;31;33543;-84
2021/08/27 05:01:29;;;;;;;5.32;3.05;;;;;;;17.71;64.16;99377.25;4460235;32;34507;-84
2021/08/27 05:03:59;;;;;;;4.40;2.62;;;;;;;17.54;64.99;99365.28;4493084;31;33548;-83
2021/08/27 05:06:27;;;;;;;4.57;2.80;;;;;;;17.83;63.74;99376.31;4472303;31;32982;-83
2021/08/27 05:08:54;;;;;;;5.10;2.65;;;;;;;17.77;63.84;99374.16;4487367;31;34768;-83
2021/08/27 05:11:22;;;;;;;4.82;2.67;;;;;;;17.58;64.81;99380.06;4470495;31;35144;-84
2021/08/27 05:13:50;;;;;;;5.72;2.80;;;;;;;17.37;65.61;99382.59;4467490;31;34246;-84
2021/08/27 05:16:17;;;;;;;4.28;2.83;;;;;;;17.25;66.05;99381.75;4473565;31;33838;-85
2021/08/27 05:18:45;;;;;;;5.00;2.80;;;;;;;17.15;66.38;99392.28;4479061;31;34359;-85
2021/08/27 05:21:15;;;;;;;3.85;2.22;;;;;;;17.46;65.41;99395.22;4485142;31;34042;-83
2021/08/27 05:23:43;;;;;;;5.32;3.03;;;;;;;17.50;65.54;99399.34;4484973;31;33863;-86
2021/08/27 05:26:11;;;;;;;3.60;2.85;;;;;;;17.55;64.96;99405.19;4481686;31;34004;-83
2021/08/27 05:28:39;;;;;;;5.95;2.97;;;;;;;17.55;64.76;99399.00;4492121;31;33495;-82
2021/08/27 05:31:09;;;;;;;4.20;2.97;;;;;;;17.71;64.16;99387.94;4473371;31;33729;-83
2021/08/27 05:33:51;;;;;;;3.92;2.70;;;;;;;17.69;64.75;99390.75;4477202;31;34902;-83
2021/08/27 05:36:19;;;;;;;4.60;2.42;;;;;;;17.89;63.79;99397.19;4470106;32;32752;-83
2021/08/27 05:38:47;;;;;;;5.68;2.62;;;;;;;17.74;64.26;99403.75;4467260;31;34905;-83
2021/08/27 05:41:15;;;;;;;5.03;2.30;;;;;;;17.83;64.18;99411.03;4470708;31;34390;-83
2021/08/27 05:43:43;;;;;;;7.97;2.90;;;;;;;18.00;63.08;99405.22;4479827;31;34138;-83
2021/08/27 05:46:10;;;;;;;4.80;2.80;;;;;;;17.94;63.33;99395.00;4484620;31;33280;-83
2021/08/27 05:48:38;;;;;;;5.72;2.60;;;;;;;17.70;63.83;99400.44;4471450;31;34399;-83
2021/08/27 05:51:09;;;;;;;6.00;3.20;;;;;;;17.97;63.11;99394.75;4476586;31;33170;-84
2021/08/27 05:53:36;;;;;;;4.47;2.20;;;;;;;18.22;62.09;99388.25;4484192;31;33307;-83
2021/08/27 05:56:04;;;;;;;3.87;2.50;;;;;;;18.22;62.47;99398.09;4482974;31;33045;-83
2021/08/27 05:58:32;;;;;;;3.28;2.65;;;;;;;18.06;63.58;99398.50;4473583;31;33816;-83
2021/08/27 06:01:00;;;;;;;5.68;3.35;;;;;;;18.21;62.32;99396.41;4487767;31;33618;-83
2021/08/27 06:03:28;;;;;;;4.57;3.05;;;;;;;18.16;62.32;99394.97;4471367;31;34144;-84
2021/08/27 06:05:57;;;;;;;5.68;3.00;;;;;;;18.11;63.13;99390.97;4477624;31;33107;-83
2021/08/27 06:08:25;;;;;;;6.18;3.30;;;;;;;18.15;62.76;99398.63;4479621;31;32742;-83
2021/08/27 06:10:53;;;;;;;4.40;3.25;;;;;;;17.93;64.05;99393.31;4473967;31;33695;-83
2021/08/27 06:13:20;;;;;;;5.20;3.22;;;;;;;18.15;63.52;99403.12;4456769;32;33414;-83
2021/08/27 06:15:48;;;;;;;6.18;3.58;;;;;;;17.97;64.97;99412.59;4457079;32;32741;-84
2021/08/27 06:18:16;;;;;;;7.82;3.70;;;;;;;18.00;64.58;99413.22;4470057;32;32779;-85
2021/08/27 06:20:44;;;;;;;5.18;3.72;;;;;;;18.13;64.27;99405.87;4464595;32;33454;-86
2021/08/27 06:23:11;;;;;;;7.55;3.83;;;;;;;18.16;63.74;99402.12;4485330;32;33904;-85
2021/08/27 06:25:39;;;;;;;6.20;4.35;;;;;;;18.11;64.02;99412.34;4485234;32;33080;-85
2021/08/27 06:28:07;;;;;;;5.82;4.15;;;;;;;18.32;63.42;99420.44;4485295;32;34843;-86
2021/08/27 06:30:36;;;;;;;5.65;3.75;;;;;;;18.36;63.60;99421.87;4473409;31;33950;-83
2021/08/27 06:33:04;;;;;;;4.72;3.67;;;;;;;18.62;62.20;99423.25;4463239;31;32954;-83
2021/08/27 06:35:31;;;;;;;5.85;4.12;;;;;;;18.28;62.46;99425.19;4481936;31;33670;-83
2021/08/27 06:41:00;;;;;;;8.02;4.30;;;;;;;18.11;63.76;99434.56;4471512;31;33585;-85
2021/08/27 06:43:31;;;;;;;6.22;3.62;;;;;;;17.94;64.05;99427.03;4489489;31;34684;-83
2021/08/27 06:46:03;;;;;;;6.20;3.42;;;;;;;18.26;62.85;99428.94;4478096;31;34075;-83
2021/08/27 06:48:31;;;;;;;;;;;;;;;18.24;63.38;99441.59;4474522;31;34572;-83
2021/08/27 06:50:59;;;;;;;6.50;3.90;;;;;;;18.49;62.49;99443.13;4468824;31;35302;-83
2021/08/27 06:53:27;;;;;;;5.87;4.05;;;;;;;18.39;62.59;99443.88;4480771;31;34187;-84
2021/08/27 06:55:55;;;;;;;6.15;4.43;;;;;;;18.42;62.95;99443.63;4471720;31;33506;-85
2021/08/27 06:58:23;;;;;;;5.22;3.80;;;;;;;18.49;62.60;99443.13;4467168;31;33200;-84
2021/08/27 07:00:50;;;;;;;6.00;3.87;;;;;;;18.44;62.23;99440.81;4470113;31;33246;-84
2021/08/27 07:03:20;;;;;;;6.12;4.05;;;;;;;18.44;62.45;99440.81;4479637;31;34033;-84
2021/08/27 07:05:49;;;;;;;7.72;4.57;;;;;;;18.55;61.90;99446.13;4483629;31;34376;-83
2021/08/27 07:08:16;;;;;;;8.75;4.45;;;;;;;18.60;61.87;99438.56;4469060;31;33293;-83
2021/08/27 07:10:44;;;;;;;6.60;4.05;;;;;;;18.72;61.25;99444.78;4484537;31;33734;-83
2021/08/27 07:13:13;;;;;;;5.65;3.97;;;;;;;18.50;62.31;99451.00;4473506;31;33110;-82
2021/08/27 07:15:41;;;;;;;6.32;4.18;;;;;;;18.58;62.00;99448.56;4489023;31;32727;-86
2021/08/27 07:18:09;;;;;;;5.18;4.20;;;;;;;18.56;62.27;99455.88;4462525;31;33355;-83
2021/08/27 07:20:37;;;;;;;9.23;5.22;;;;;;;18.51;62.15;99454.53;4490110;31;33632;-84
2021/08/27 07:23:05;;;;;;;5.85;3.80;;;;;;;18.60;62.67;99451.09;4473821;31;34748;-83
2021/08/27 07:25:33;;;;;;;7.90;4.07;;;;;;;18.78;61.60;99454.09;4477406;31;33112;-83
2021/08/27 07:28:01;;;;;;;7.62;4.03;;;;;;;18.98;61.13;99455.97;4481550;31;33723;-83
2021/08/27 07:30:30;;;;;;;7.75;4.32;;;;;;;18.71;62.47;99463.62;4485114;31;34326;-83
2021/08/27 07:32:58;;;;;;;5.50;4.03;;;;;;;18.98;61.79;99458.63;4470292;31;34149;-83
2021/08/27 07:35:25;;;;;;;5.87;3.25;;;;;;;19.23;60.23;99459.22;4471360;31;33485;-83
2021/08/27 07:37:53;;;;;;;5.95;3.47;;;;;;;19.25;59.60;99446.59;4454072;31;33974;-83
2021/08/27 07:40:21;;;;;;;5.32;4.07;;;;;;;19.18;60.28;99447.13;4475851;31;33471;-83
2021/08/27 07:42:49;;;;;;;5.03;3.20;;;;;;;18.95;62.01;99450.88;4483326;31;33743;-83
2021/08/27 07:45:17;;;;;;;5.12;3.00;;;;;;;19.26;58.85;99442.94;4484669;31;33151;-83
2021/08/27 07:47:45;;;;;;;5.12;3.30;;;;;;;19.52;59.19;99446.91;4471286;31;32746;-83
2021/08/27 07:50:14;;;;;;;4.95;3.05;;;;;;;19.76;58.93;99449.31;4483802;31;34626;-83
2021/08/27 07:52:42;;;;;;;4.95;3.15;;;;;;;19.51;59.15;99447.84;4473076;31;33718;-83
2021/08/27 07:55:10;;;;;;;3.83;2.83;;;;;;;20.05;58.73;99453.94;4477270;31;34214;-83
2021/08/27 07:57:42;;;;;;;3.87;2.80;;;;;;;19.98;58.85;99458.13;4484052;31;34504;-83
2021/08/27 08:00:11;;;;;;;6.03;2.78;;;;;;;20.10;58.06;99460.59;4487882;31;33654;-83
2021/08/27 08:02:39;;;;;;;3.87;2.87;;;;;;;20.32;57.46;99464.00;4469459;31;34777;-85
2021/08/27 08:05:08;;;;;;;4.85;2.97;;;;;;;20.64;56.35;99464.69;4470380;31;32755;-88
2021/08/27 08:07:35;;;;;;;5.12;2.97;;;;;;;20.17;56.50;99461.72;4482609;31;33131;-89
2021/08/27 08:10:04;;;;;;;3.67;3.05;;;;;;;20.51;55.00;99458.75;4468432;31;34123;-88
2021/08/27 08:12:32;;;;;;;4.07;2.95;;;;;;;20.59;54.87;99461.56;4483812;31;33615;-88
2021/08/27 08:15:00;;;;;;;6.20;3.30;;;;;;;20.56;55.36;99461.88;4472110;31;34296;-88
2021/08/27 08:17:28;;;;;;;5.25;2.92;;;;;;;20.54;55.01;99468.34;4470609;31;34707;-89
2021/08/27 08:19:55;;;;;;;4.07;2.55;;;;;;;20.51;55.25;99474.84;4464754;32;34136;-89
2021/08/27 08:22:23;;;;;;;3.65;2.50;;;;;;;20.55;55.33;99473.56;4454581;31;34725;-89
2021/08/27 08:24:51;;;;;;;3.28;2.42;;;;;;;20.60;54.94;99471.31;4463819;31;33760;-89
2021/08/27 08:27:18;;;;;;;5.37;2.30;;;;;;;20.56;54.36;99469.91;4470083;32;33954;-89
2021/08/27 08:29:46;;;;;;;3.33;1.80;;;;;;;20.55;54.60;99470.88;4468029;31;33705;-89
2021/08/27 08:32:14;;;;;;;4.20;2.00;;;;;;;20.36;53.47;99470.81;4462235;31;34136;-89
2021/08/27 08:34:42;;;;;;;4.07;1.87;;;;;;;20.71;52.53;99473.88;4468129;31;33355;-89
2021/08/27 08:37:09;;;;;;;5.15;1.83;;;;;;;20.72;53.06;99480.09;4459056;31;34386;-88
2021/08/27 08:39:37;;;;;;;3.17;1.70;;;;;;;20.61;52.06;99481.06;4458579;31;35258;-89
2021/08/27 08:42:05;;;;;;;4.65;1.40;;;;;;;21.04;50.95;99479.00;4453918;31;32951;-89
2021/08/27 08:44:34;;;;;;;3.95;2.42;;;;;;;21.02;49.93;99479.09;4467842;31;32668;-89
2021/08/27 08:47:03;;;;;;;4.75;2.00;;;;;;;20.74;51.56;99490.69;4452655;32;33987;-88
2021/08/27 08:49:33;;;;;;;3.28;1.50;;;;;;;20.36;52.75;99493.09;4458618;31;33129;-89
2021/08/27 08:52:01;;;;;;;5.22;1.55;;;;;;;20.51;50.58;99496.31;4465510;31;34132;-89
2021/08/27 08:54:30;;;;;;;3.40;1.70;;;;;;;20.58;51.00;99492.06;4467222;31;32348;-89
2021/08/27 08:56:58;;;;;;;3.00;1.48;;;;;;;20.73;50.30;99495.19;4476043;31;33973;-89
2021/08/27 08:59:26;;;;;;;5.75;1.80;;;;;;;21.18;49.49;99492.81;4458247;31;34068;-88
2021/08/27 09:01:54;;;;;;;3.03;2.03;;;;;;;20.99;49.86;99492.00;4452997;31;33102;-89
2021/08/27 09:04:27;;;;;;;4.85;1.80;;;;;;;20.47;52.86;99500.25;4476670;31;33854;-88
2021/08/27 09:06:56;;;;;;;2.58;1.62;;;;;;;20.55;51.10;99503.06;4460549;31;33135;-89
2021/08/27 09:09:33;;;;;;;2.97;1.45;;;;;;;20.60;51.08;99494.59;4461929;31;34684;-89
2021/08/27 09:12:25;;;;;;;2.97;1.60;;;;;;;20.35;51.62;99506.66;4460111;31;32678;-89
2021/08/27 09:14:58;;;;;;;2.10;1.37;;;;;;;20.38;50.55;99501.03;4474607;31;33422;-89
2021/08/27 09:17:36;;;;;;;2.37;2.00;;;;;;;20.54;50.89;99506.75;4488720;31;32964;-88
2021/08/27 09:20:06;;;;;;;3.90;1.90;;;;;;;20.38;51.39;99498.34;4472540;31;33050;-88
2021/08/27 09:22:57;;;;;;;7.15;2.30;;;;;;;20.56;50.90;99496.75;4485833;31;34061;-88
2021/08/27 09:25:27;;;;;;;2.65;1.83;;;;;;;20.54;53.13;99501.38;4485366;31;32840;-89
2021/08/27 09:28:32;;;;;;;4.22;2.53;;;;;;;20.54;50.74;99500.53;4484762;31;33646;-89
2021/08/27 09:31:00;;;;;;;3.10;1.52;;;;;;;20.52;51.79;99498.00;4446145;31;33338;-89
2021/08/27 09:33:32;;;;;;;3.03;1.60;;;;;;;20.47;50.54;99508.28;4462491;31;32747;-88
2021/08/27 09:36:05;;;;;;;2.47;1.67;;;;;;;20.62;48.92;99509.59;4483302;31;33037;-89
2021/08/27 09:38:41;;;;;;;2.28;1.70;;;;;;;20.10;50.66;99508.84;4478988;31;32867;-90
2021/08/27 09:41:10;;;;;;;2.95;2.25;;;;;;;20.25;50.50;99513.81;4485567;31;34166;-88
2021/08/27 09:43:50;;;;;;;4.62;2.28;;;;;;;20.32;51.41;99509.59;4489638;31;34603;-90
2021/08/27 09:46:31;;;;;;;3.53;2.10;;;;;;;20.37;50.75;99513.59;4471734;31;32728;-89
2021/08/27 09:49:01;;;;;;;4.40;1.98;;;;;;;20.50;50.04;99516.03;4482779;31;33669;-89
2021/08/27 09:51:42;;;;;;;4.75;2.67;;;;;;;20.12;52.15;99506.84;4469820;31;33370;-88
2021/08/27 09:54:10;;;;;;;3.33;2.35;;;;;;;20.54;50.64;99508.56;4478954;31;33043;-88
2021/08/27 09:56:49;;;;;;;2.55;1.95;;;;;;;20.12;51.70;99500.63;4469337;31;34323;-89
2021/08/27 09:59:18;;;;;;;3.47;2.25;;;;;;;20.24;51.89;99512.13;4482910;31;33836;-89
2021/08/27 10:01:49;;;;;;;2.53;1.70;;;;;;;20.75;51.35;99508.47;4470503;31;33671;-90
2021/08/27 10:04:18;;;;;;;1.65;1.55;;;;;;;20.64;51.27;99501.38;4475018;31;32791;-89
2021/08/27 10:06:46;;;;;;;4.37;2.05;;;;;;;20.83;50.43;99501.41;4477073;31;34330;-89
2021/08/27 10:09:14;;;;;;;5.18;1.87;;;;;;;21.13;49.98;99492.41;4468790;31;32701;-88
2021/08/27 10:11:43;;;;;;;1.48;1.02;;;;;;;20.91;50.62;99500.72;4487014;31;35091;-88
2021/08/27 10:14:11;;;;;;;1.50;1.15;;;;;;;21.06;48.69;99506.53;4488671;31;33647;-88
2021/08/27 10:16:41;;;;;;;2.20;0.90;;;;;;;21.17;49.10;99504.56;4480629;31;32696;-88
2021/08/27 10:19:09;;;;;;;1.20;0.90;;;;;;;20.82;49.00;99509.62;4481448;31;33898;-88
2021/08/27 10:21:37;;;;;;;1.62;1.40;;;;;;;21.16;47.35;99508.22;4456852;31;32981;-88
2021/08/27 10:24:04;;;;;;;1.98;1.15;;;;;;;21.12;48.97;99506.78;4464997;31;32841;-87
2021/08/27 10:26:32;;;;;;;1.77;1.08;;;;;;;21.48;47.29;99501.72;4473217;31;33638;-88
2021/08/27 10:29:05;;;;;;;1.58;0.80;;;;;;;21.52;47.55;99500.44;4467397;31;33133;-88
2021/08/27 10:31:45;;;;;;;0.93;0.75;;;;;;;21.43;47.15;99498.63;4468233;31;32916;-88
2021/08/27 10:34:14;;;;;;;5.07;1.20;;;;;;;21.48;46.51;99496.34;4470201;31;34259;-88
2021/08/27 10:36:44;;;;;;;1.37;0.77;;;;;;;21.29;48.66;99493.66;4478221;31;33275;-88
2021/08/27 10:39:31;;;;;;;2.00;1.00;;;;;;;21.67;47.87;99507.06;4475232;31;34327;-88
2021/08/27 10:42:00;;;;;;;1.27;0.85;;;;;;;21.76;46.66;99494.59;4454275;31;33765;-88
2021/08/27 10:44:59;;;;;;;3.20;1.30;;;;;;;21.68;46.79;99497.16;4458197;31;33406;-88
2021/08/27 10:47:28;;;;;;;1.52;0.73;;;;;;;21.49;47.34;99508.78;4443061;31;32857;-88
2021/08/27 10:49:57;;;;;;;1.27;0.80;;;;;;;21.18;47.90;99508.94;4475884;31;33309;-88
2021/08/27 10:52:33;;;;;;;1.33;0.65;;;;;;;21.54;46.32;99511.03;4458680;32;33269;-88
2021/08/27 10:55:06;;;;;;;1.83;1.02;;;;;;;21.66;46.17;99509.91;4454173;31;34261;-88
2021/08/27 10:57:43;;;;;;;;;;;;;;;21.61;45.80;99513.03;4468004;31;32930;-88
2021/08/27 11:00:11;;;;;;;1.17;0.88;;;;;;;21.20;47.51;99509.62;4462225;32;34509;-86
2021/08/27 11:02:52;;;;;;;1.65;0.88;;;;;;;21.57;46.91;99510.78;4486118;31;34483;-86
2021/08/27 11:05:34;;;;;;;0.83;0.60;;;;;;;21.52;46.75;99518.41;4479344;32;34169;-86
2021/08/27 11:08:14;;;;;;;1.17;0.70;;;;;;;21.76;45.86;99516.09;4472117;32;32698;-86
2021/08/27 11:11:08;;;;;;;1.05;0.60;;;;;;;21.85;46.71;99522.44;4464422;32;33248;-85
2021/08/27 11:13:38;;;;;;;0.98;0.70;;;;;;;22.08;45.49;99521.09;4472080;32;33209;-85
2021/08/27 11:16:24;;;;;;;1.90;1.12;;;;;;;21.47;46.27;99519.69;4452947;32;33400;-85
2021/08/27 11:18:53;;;;;;;1.27;0.52;;;;;;;21.84;45.50;99515.34;4481202;31;33044;-86
2021/08/27 11:21:28;;;;;;;1.00;0.50;;;;;;;21.73;46.06;99511.84;4466817;31;33216;-86
2021/08/27 11:24:18;;;;;;;1.30;1.08;;;;;;;21.87;44.36;99497.09;4469980;31;33255;-86
2021/08/27 11:26:47;;;;;;;0.47;0.47;;;;;;;21.95;43.30;99499.06;4467002;31;33665;-86
2021/08/27 11:29:33;;;;;;;0.40;0.40;;;;;;;21.62;43.45;99500.44;4471464;31;95694;-86
2021/08/27 11:32:31;;;;;;;0.62;0.62;;;;;;;21.87;43.00;99488.19;4487579;31;33912;-86
2021/08/27 11:35:05;;;;;;;0.30;0.30;;;;;;;21.44;43.99;99500.31;4490278;31;34610;-86
2021/08/27 11:37:38;;;;;;;0.60;0.25;;;;;;;21.81;43.23;99488.78;4471791;32;33000;-87
2021/08/27 11:40:13;;;;;;;0.57;0.43;;;;;;;22.08;42.38;99493.38;4458730;32;32964;-86
2021/08/27 11:42:43;;;;;;;1.23;0.30;;;;;;;21.82;44.98;99490.47;4471766;31;32772;-86
2021/08/27 11:45:14;;;;;;;0.60;0.30;;;;;;;22.47;41.35;99478.75;4474928;31;33339;-86
2021/08/27 11:47:46;;;;;;;0.80;0.30;;;;;;;22.28;43.06;99484.25;4475714;32;33626;-86
2021/08/27 11:50:23;;;;;;;1.42;0.22;;;;;;;22.34;42.04;99488.16;4458777;32;33878;-86
2021/08/27 11:52:55;;;;;;;1.85;0.68;;;;;;;22.89;40.93;99480.06;4479553;31;32860;-86
2021/08/27 11:55:23;;;;;;;1.83;0.40;;;;;;;23.23;40.18;99467.56;4474283;31;33542;-86